Time;durP1;ratioP1;P1;durP2;ratioP2;P2;SDS_P1;SDS_P2;PMS_P1;PMS_P2;Temp;Humidity;BMP_temperature;BMP_pressure;BME280_temperature;BME280_humidity;BME280_pressure;Samples;Min_cycle;Max_cycle;Signal;HPM_P1;HPM_P2
2023/05/30 00:01:38;;;;;;;7.10;3.90;;;18.90;91.60;;;;;;5114541;28;20941;-68
2023/05/30 00:04:05;;;;;;;9.37;3.90;;;18.90;92.20;;;;;;5114555;28;20454;-68
2023/05/30 00:06:33;;;;;;;7.07;3.87;;;18.90;91.90;;;;;;5114286;28;20656;-68
2023/05/30 00:09:01;;;;;;;7.70;3.70;;;18.80;92.10;;;;;;5114217;28;20493;-69
2023/05/30 00:11:30;;;;;;;7.03;3.43;;;18.80;92.00;;;;;;5114476;28;20451;-68
2023/05/30 00:13:58;;;;;;;6.40;3.63;;;18.80;91.80;;;;;;5114143;28;20447;-68
2023/05/30 00:16:27;;;;;;;7.90;3.67;;;18.70;92.00;;;;;;5113830;28;20454;-68
2023/05/30 00:18:56;;;;;;;5.97;3.63;;;18.60;92.50;;;;;;5113726;28;20872;-68
2023/05/30 00:21:23;;;;;;;7.77;3.80;;;18.60;92.90;;;;;;5113520;28;20462;-69
2023/05/30 00:23:50;;;;;;;5.20;3.27;;;18.60;93.00;;;;;;5114288;28;20457;-69
2023/05/30 00:26:18;;;;;;;10.70;3.50;;;18.60;92.80;;;;;;5114019;28;20486;-69
2023/05/30 00:28:46;;;;;;;6.43;3.40;;;18.60;93.20;;;;;;5114159;28;20879;-69
2023/05/30 00:31:14;;;;;;;7.10;3.37;;;18.70;92.70;;;;;;5113975;28;20459;-68
2023/05/30 00:33:41;;;;;;;5.80;3.30;;;18.60;92.80;;;;;;5114248;28;20884;-68
2023/05/30 00:36:08;;;;;;;6.50;3.40;;;18.60;93.10;;;;;;5113805;28;20443;-68
2023/05/30 00:38:35;;;;;;;7.40;3.60;;;18.60;93.00;;;;;;5114066;28;20957;-69
2023/05/30 00:41:02;;;;;;;4.70;3.20;;;18.50;93.40;;;;;;5095845;28;20455;-68
2023/05/30 00:43:29;;;;;;;7.40;3.83;;;18.50;93.40;;;;;;5095595;28;20459;-69
2023/05/30 00:45:58;;;;;;;6.97;3.33;;;18.40;93.60;;;;;;5113393;28;20552;-68
2023/05/30 00:48:27;;;;;;;5.83;3.27;;;18.40;93.80;;;;;;5113549;28;20451;-68
2023/05/30 00:50:54;;;;;;;6.40;3.40;;;18.40;93.80;;;;;;5113643;28;20444;-68
2023/05/30 00:53:22;;;;;;;7.93;3.73;;;18.40;94.10;;;;;;5113668;28;20464;-68
2023/05/30 00:55:51;;;;;;;5.50;3.20;;;18.50;93.60;;;;;;5113653;28;20447;-69
2023/05/30 00:58:18;;;;;;;9.73;4.40;;;18.50;93.80;;;;;;5095576;28;20824;-68
2023/05/30 01:00:45;;;;;;;6.97;3.23;;;18.50;93.80;;;;;;5113675;28;20462;-69
2023/05/30 01:03:15;;;;;;;8.30;3.40;;;18.40;94.20;;;;;;5113404;28;20451;-68
2023/05/30 01:06:00;;;;;;;7.10;3.60;;;18.40;94.30;;;;;;5113104;28;20491;-68
2023/05/30 01:08:27;;;;;;;5.43;3.10;;;18.40;94.30;;;;;;5113144;28;20453;-68
2023/05/30 01:11:03;;;;;;;9.57;3.00;;;18.30;94.30;;;;;;5113189;28;20796;-68
2023/05/30 01:13:40;;;;;;;6.83;3.57;;;18.30;94.70;;;;;;5113207;28;20630;-68
2023/05/30 01:16:12;;;;;;;6.33;3.20;;;18.30;94.20;;;;;;5112771;28;20454;-68
2023/05/30 01:18:43;;;;;;;6.20;3.20;;;18.20;94.90;;;;;;5113252;28;20458;-68
2023/05/30 01:21:11;;;;;;;6.90;3.80;;;18.20;94.90;;;;;;5112025;28;20955;-68
2023/05/30 01:23:55;;;;;;;7.38;3.63;;;18.20;95.40;;;;;;5111730;28;21004;-68
2023/05/30 01:26:32;;;;;;;6.83;3.73;;;18.10;95.20;;;;;;5112228;28;20782;-68
2023/05/30 01:29:02;;;;;;;8.33;3.50;;;18.10;95.60;;;;;;5113182;28;21160;-68
2023/05/30 01:31:33;;;;;;;7.67;3.57;;;18.20;95.70;;;;;;5094875;28;20467;-68
2023/05/30 01:34:02;;;;;;;5.17;3.43;;;18.10;95.90;;;;;;5112821;28;20962;-68
2023/05/30 01:36:30;;;;;;;7.63;3.43;;;18.20;95.40;;;;;;5113038;28;20458;-69
2023/05/30 01:38:57;;;;;;;6.47;3.60;;;18.20;95.10;;;;;;5113089;28;20967;-69
2023/05/30 01:41:31;;;;;;;5.77;3.20;;;18.20;95.20;;;;;;5112625;28;20447;-68
2023/05/30 01:44:06;;;;;;;5.93;3.40;;;18.30;95.30;;;;;;5112230;28;20455;-69
2023/05/30 01:46:36;;;;;;;6.17;3.20;;;18.30;95.40;;;;;;5112833;28;20483;-68
2023/05/30 01:49:16;;;;;;;7.60;3.33;;;18.20;95.40;;;;;;5112675;28;20952;-68
2023/05/30 01:51:48;;;;;;;5.80;3.03;;;18.20;95.30;;;;;;5112764;28;20459;-68
2023/05/30 01:54:17;;;;;;;7.27;3.50;;;18.00;95.70;;;;;;5112426;28;20462;-68
2023/05/30 01:56:48;;;;;;;7.50;3.60;;;17.90;96.00;;;;;;5112302;28;20447;-68
2023/05/30 01:59:19;;;;;;;5.03;3.23;;;17.90;96.60;;;;;;5112701;28;20954;-68
2023/05/30 02:01:48;;;;;;;4.23;2.97;;;17.90;96.20;;;;;;5112198;28;20462;-68
2023/05/30 02:04:15;;;;;;;6.20;3.30;;;18.00;96.40;;;;;;5112349;28;20447;-68
2023/05/30 02:06:42;;;;;;;5.23;3.10;;;17.90;96.40;;;;;;5111917;28;20495;-68
2023/05/30 02:09:09;;;;;;;6.33;3.40;;;17.80;97.50;;;;;;5112077;28;20826;-69
2023/05/30 02:11:37;;;;;;;4.90;3.10;;;17.80;97.10;;;;;;5112180;28;20466;-68
2023/05/30 02:14:05;;;;;;;4.77;3.17;;;17.90;96.80;;;;;;5111914;28;20534;-68
2023/05/30 02:16:33;;;;;;;7.63;3.57;;;17.80;96.50;;;;;;5112192;28;20451;-68
2023/05/30 02:19:01;;;;;;;4.90;2.90;;;17.70;97.40;;;;;;5111979;28;20459;-68
2023/05/30 02:21:28;;;;;;;7.90;3.33;;;17.40;97.50;;;;;;5111989;28;20956;-68
2023/05/30 02:23:55;;;;;;;6.03;2.77;;;17.50;97.90;;;;;;5111898;28;20504;-68
2023/05/30 02:26:22;;;;;;;6.73;3.20;;;17.50;98.00;;;;;;5111779;28;20491;-68
2023/05/30 02:28:49;;;;;;;6.40;3.60;;;17.50;98.00;;;;;;5111990;28;20447;-68
2023/05/30 02:31:17;;;;;;;4.10;2.70;;;17.40;98.00;;;;;;5112047;28;20481;-68
2023/05/30 02:33:45;;;;;;;7.23;3.40;;;17.50;98.00;;;;;;5112094;28;20462;-68
2023/05/30 02:36:12;;;;;;;5.40;3.27;;;17.40;98.00;;;;;;5111675;28;20458;-68
2023/05/30 02:38:39;;;;;;;5.73;3.47;;;17.40;98.00;;;;;;5111506;28;20454;-68
2023/05/30 02:41:09;;;;;;;6.20;3.30;;;17.30;98.00;;;;;;5111577;28;20975;-68
2023/05/30 02:43:36;;;;;;;5.60;2.97;;;17.30;98.00;;;;;;5093957;28;20446;-68
2023/05/30 02:46:05;;;;;;;4.90;2.87;;;17.40;98.00;;;;;;5111586;28;20482;-68
2023/05/30 02:48:32;;;;;;;5.83;3.40;;;17.30;98.00;;;;;;5093774;28;20455;-68
2023/05/30 02:51:01;;;;;;;4.90;3.17;;;17.30;98.00;;;;;;5111661;28;20462;-68
2023/05/30 02:53:28;;;;;;;6.33;3.53;;;17.30;98.00;;;;;;5111389;28;20451;-68
2023/05/30 02:55:56;;;;;;;5.57;3.47;;;17.30;98.00;;;;;;5093503;28;20508;-68
2023/05/30 02:58:23;;;;;;;5.03;2.67;;;17.20;98.00;;;;;;5100108;28;20953;-68
2023/05/30 03:00:50;;;;;;;6.80;3.20;;;17.10;98.00;;;;;;5091244;28;20464;-68
2023/05/30 03:03:17;;;;;;;6.37;3.27;;;17.10;98.00;;;;;;5091036;28;20448;-68
2023/05/30 03:05:46;;;;;;;6.57;3.53;;;16.90;98.00;;;;;;5090931;28;20491;-68
2023/05/30 03:08:15;;;;;;;4.57;2.70;;;16.80;98.00;;;;;;5091333;28;20521;-68
2023/05/30 03:10:42;;;;;;;10.10;3.97;;;16.80;98.00;;;;;;5091109;28;20455;-68
2023/05/30 03:13:10;;;;;;;11.13;4.03;;;16.70;98.00;;;;;;5091034;28;20502;-68
2023/05/30 03:15:39;;;;;;;6.10;3.67;;;16.50;98.00;;;;;;5091149;28;20542;-68
2023/05/30 03:18:06;;;;;;;4.93;3.03;;;16.40;98.00;;;;;;5091195;28;20953;-68
2023/05/30 03:20:36;;;;;;;4.77;2.80;;;16.60;98.00;;;;;;5090900;28;20452;-68
2023/05/30 03:23:03;;;;;;;4.63;3.00;;;16.40;98.00;;;;;;5091177;28;21004;-68
2023/05/30 03:25:32;;;;;;;5.47;3.00;;;16.20;98.00;;;;;;5091028;28;20835;-68
2023/05/30 03:27:59;;;;;;;4.60;2.90;;;16.20;98.00;;;;;;5090595;28;20535;-68
2023/05/30 03:30:27;;;;;;;5.93;3.47;;;16.00;98.00;;;;;;5090911;28;20988;-67
2023/05/30 03:32:54;;;;;;;5.40;3.30;;;15.80;98.00;;;;;;5090937;28;20452;-68
2023/05/30 03:35:21;;;;;;;6.30;3.90;;;15.60;98.00;;;;;;5090495;28;20471;-68
2023/05/30 03:37:51;;;;;;;5.03;2.90;;;15.50;98.00;;;;;;5090863;28;20460;-68
2023/05/30 03:40:18;;;;;;;5.40;2.97;;;15.50;98.00;;;;;;5090728;28;20492;-68
2023/05/30 03:42:46;;;;;;;6.87;3.20;;;15.40;98.00;;;;;;5090771;28;20543;-68
2023/05/30 03:45:13;;;;;;;5.33;3.10;;;15.40;98.00;;;;;;5090607;28;20452;-68
2023/05/30 03:47:40;;;;;;;4.90;3.03;;;15.40;98.00;;;;;;5090576;28;20491;-68
2023/05/30 03:50:08;;;;;;;6.50;3.27;;;15.30;98.00;;;;;;5091497;28;20512;-68
2023/05/30 03:52:35;;;;;;;8.33;3.53;;;15.20;98.00;;;;;;5094101;28;20878;-68
2023/05/30 03:55:03;;;;;;;7.77;3.90;;;15.20;98.00;;;;;;5094379;28;20447;-68
2023/05/30 03:57:30;;;;;;;6.53;3.30;;;15.10;98.00;;;;;;5094273;28;20451;-68
2023/05/30 04:00:01;;;;;;;7.27;3.10;;;14.90;98.00;;;;;;5094211;28;20520;-68
2023/05/30 04:02:28;;;;;;;4.77;3.17;;;14.90;98.00;;;;;;5075981;28;20459;-68
2023/05/30 04:04:55;;;;;;;5.40;3.10;;;14.90;98.00;;;;;;5094058;28;20949;-67
2023/05/30 04:07:23;;;;;;;10.00;3.37;;;14.90;98.00;;;;;;5093968;28;20483;-68
2023/05/30 04:09:50;;;;;;;8.23;2.83;;;15.00;98.00;;;;;;5094014;28;20444;-68
2023/05/30 04:12:17;;;;;;;5.13;3.17;;;15.00;98.00;;;;;;5094097;28;20582;-68
2023/05/30 04:14:44;;;;;;;8.67;3.10;;;15.10;98.00;;;;;;5094008;28;20464;-68
2023/05/30 04:17:13;;;;;;;6.00;3.50;;;15.10;98.00;;;;;;5094012;28;20992;-68
2023/05/30 04:19:40;;;;;;;4.20;2.60;;;15.10;98.00;;;;;;5093935;28;20456;-68
2023/05/30 04:22:08;;;;;;;5.30;3.00;;;15.10;98.00;;;;;;5094097;28;20502;-68
2023/05/30 04:24:35;;;;;;;8.60;3.40;;;15.20;98.00;;;;;;5093970;28;20559;-67
2023/05/30 04:27:02;;;;;;;7.50;3.47;;;15.40;98.00;;;;;;5094132;28;20781;-67
2023/05/30 04:29:29;;;;;;;5.20;3.00;;;15.40;98.00;;;;;;5093598;28;20824;-67
2023/05/30 04:31:56;;;;;;;7.50;3.70;;;15.30;98.00;;;;;;5093922;28;21126;-68
2023/05/30 04:34:25;;;;;;;8.80;3.77;;;15.40;98.00;;;;;;5093364;28;20448;-68
2023/05/30 04:36:53;;;;;;;5.60;3.20;;;15.20;98.00;;;;;;5092921;28;20474;-68
2023/05/30 04:39:22;;;;;;;7.07;3.30;;;15.20;98.00;;;;;;5093335;28;20451;-68
2023/05/30 04:41:51;;;;;;;4.57;2.77;;;15.10;98.00;;;;;;5075173;28;20460;-68
2023/05/30 04:44:18;;;;;;;8.70;3.53;;;15.20;98.00;;;;;;5075611;28;20459;-67
2023/05/30 04:46:46;;;;;;;6.90;3.30;;;15.30;98.00;;;;;;5092842;28;20578;-68
2023/05/30 04:49:15;;;;;;;5.63;2.97;;;15.30;98.00;;;;;;5093003;28;20934;-68
2023/05/30 04:51:44;;;;;;;7.03;3.60;;;15.50;98.00;;;;;;5093262;28;20457;-68
2023/05/30 04:54:11;;;;;;;5.70;3.23;;;15.60;98.00;;;;;;5093173;28;20452;-68
2023/05/30 04:56:39;;;;;;;6.50;3.53;;;15.50;98.00;;;;;;5075257;28;20464;-68
2023/05/30 04:59:06;;;;;;;7.27;3.47;;;15.50;98.00;;;;;;5093011;28;20452;-68
2023/05/30 05:01:37;;;;;;;19.43;4.10;;;15.60;98.00;;;;;;5092913;28;20492;-68
2023/05/30 05:04:05;;;;;;;7.03;3.27;;;15.80;98.00;;;;;;5093234;28;20965;-67
2023/05/30 05:06:32;;;;;;;5.40;2.90;;;15.80;98.00;;;;;;5092786;28;20566;-67
2023/05/30 05:09:00;;;;;;;7.40;3.43;;;15.90;98.00;;;;;;5092881;28;20456;-68
2023/05/30 05:11:27;;;;;;;5.27;3.27;;;16.00;98.00;;;;;;5092814;28;20461;-67
2023/05/30 05:13:54;;;;;;;5.10;2.90;;;16.00;98.00;;;;;;5092839;28;20448;-68
2023/05/30 05:16:21;;;;;;;6.00;3.30;;;16.10;98.00;;;;;;5093045;28;20456;-68
2023/05/30 05:18:50;;;;;;;6.27;2.90;;;16.20;98.00;;;;;;5092776;28;20447;-68
2023/05/30 05:21:17;;;;;;;5.90;3.43;;;16.30;98.00;;;;;;5092758;28;20918;-68
2023/05/30 05:23:44;;;;;;;4.80;3.17;;;16.50;98.00;;;;;;5092550;28;20459;-68
2023/05/30 05:26:13;;;;;;;5.67;3.30;;;16.50;98.00;;;;;;5092403;28;20476;-68
2023/05/30 05:28:40;;;;;;;5.73;3.53;;;16.50;98.00;;;;;;5074250;28;20529;-67
2023/05/30 05:31:07;;;;;;;6.87;3.30;;;16.50;98.00;;;;;;5092563;28;20491;-68
2023/05/30 05:33:34;;;;;;;5.77;3.47;;;16.50;98.00;;;;;;5092266;28;20517;-67
2023/05/30 05:36:02;;;;;;;5.13;3.17;;;16.70;98.00;;;;;;5092321;28;20995;-68
2023/05/30 05:38:29;;;;;;;4.70;3.03;;;16.60;98.00;;;;;;5092435;28;20538;-68
2023/05/30 05:40:56;;;;;;;6.20;2.93;;;16.60;98.00;;;;;;5074320;28;20483;-68
2023/05/30 05:43:25;;;;;;;8.93;3.77;;;16.60;98.00;;;;;;5092212;28;20957;-68
2023/05/30 05:45:52;;;;;;;5.67;3.00;;;16.70;98.00;;;;;;5092166;28;20929;-68
2023/05/30 05:48:19;;;;;;;5.23;3.23;;;16.70;98.00;;;;;;5091670;28;21019;-68
2023/05/30 05:50:46;;;;;;;6.27;3.37;;;16.80;98.00;;;;;;5092311;28;20969;-68
2023/05/30 05:53:13;;;;;;;10.07;3.90;;;16.80;98.00;;;;;;5092237;28;20671;-68
2023/05/30 05:55:40;;;;;;;7.80;3.83;;;16.80;98.00;;;;;;5092002;28;20509;-68
2023/05/30 05:58:15;;;;;;;6.93;3.30;;;16.80;98.00;;;;;;5091893;28;20456;-68
2023/05/30 06:00:43;;;;;;;5.27;3.20;;;16.80;98.00;;;;;;5091970;28;20459;-66
2023/05/30 06:03:10;;;;;;;7.27;3.60;;;17.00;98.00;;;;;;5091893;28;20448;-66
2023/05/30 06:05:37;;;;;;;6.10;3.50;;;17.00;98.00;;;;;;5091847;28;20463;-66
2023/05/30 06:08:05;;;;;;;7.00;3.43;;;17.20;98.00;;;;;;5073819;28;20490;-66
2023/05/30 06:10:32;;;;;;;9.40;3.60;;;17.20;98.00;;;;;;5091771;28;20452;-66
2023/05/30 06:12:59;;;;;;;6.97;3.80;;;17.40;98.00;;;;;;5073703;28;20452;-66
2023/05/30 06:15:27;;;;;;;6.17;3.60;;;17.30;98.00;;;;;;5091781;28;20460;-66
2023/05/30 06:17:55;;;;;;;6.90;4.07;;;17.40;98.00;;;;;;5091709;28;20459;-66
2023/05/30 06:20:23;;;;;;;8.40;3.90;;;17.50;98.00;;;;;;5091628;28;20452;-66
2023/05/30 06:22:50;;;;;;;6.27;3.60;;;17.50;98.00;;;;;;5091552;28;20843;-66
2023/05/30 06:25:17;;;;;;;5.50;3.37;;;17.60;98.00;;;;;;5073600;28;20505;-66
2023/05/30 06:27:44;;;;;;;7.97;3.47;;;17.50;98.00;;;;;;5091271;28;20512;-66
2023/05/30 06:30:12;;;;;;;10.90;3.93;;;17.70;98.00;;;;;;5073540;28;20452;-66
2023/05/30 06:32:39;;;;;;;4.10;2.83;;;17.70;98.00;;;;;;5091518;28;20463;-66
2023/05/30 06:35:09;;;;;;;6.87;3.30;;;17.80;98.00;;;;;;5091376;28;20478;-66
2023/05/30 06:37:36;;;;;;;6.83;2.97;;;18.00;98.00;;;;;;5091302;28;20459;-66
2023/05/30 06:40:04;;;;;;;4.00;2.73;;;18.10;98.00;;;;;;5073204;28;21026;-66
2023/05/30 06:42:33;;;;;;;3.53;2.73;;;18.20;98.00;;;;;;5091298;28;20714;-66
2023/05/30 06:45:00;;;;;;;7.93;3.23;;;18.20;98.00;;;;;;5091086;28;20460;-66
2023/05/30 06:47:27;;;;;;;3.93;2.80;;;18.20;98.00;;;;;;5091418;28;20495;-66
2023/05/30 06:49:55;;;;;;;4.30;2.90;;;18.40;98.00;;;;;;5091365;28;20814;-66
2023/05/30 06:52:23;;;;;;;6.97;3.30;;;18.40;98.00;;;;;;5091330;28;20447;-66
2023/05/30 06:54:50;;;;;;;7.43;3.10;;;18.50;98.00;;;;;;5091115;28;20497;-66
2023/05/30 06:57:17;;;;;;;5.57;3.00;;;18.60;98.00;;;;;;5073353;28;20455;-66
2023/05/30 06:59:48;;;;;;;11.80;3.37;;;18.70;98.00;;;;;;5091373;28;20459;-65
2023/05/30 07:02:15;;;;;;;6.63;3.50;;;18.80;98.00;;;;;;5091516;28;20451;-66
2023/05/30 07:04:42;;;;;;;7.43;3.13;;;18.80;98.00;;;;;;5091151;28;20607;-66
2023/05/30 07:07:10;;;;;;;5.40;2.97;;;18.90;98.00;;;;;;5091273;28;20480;-67
2023/05/30 07:09:38;;;;;;;5.43;3.10;;;18.90;98.00;;;;;;5091138;28;20452;-66
2023/05/30 07:12:06;;;;;;;6.77;2.93;;;18.90;98.00;;;;;;5090821;28;20976;-66
2023/05/30 07:14:33;;;;;;;5.37;3.10;;;18.80;98.00;;;;;;5091130;28;20525;-67
2023/05/30 07:17:00;;;;;;;7.80;3.10;;;18.90;98.00;;;;;;5090996;28;20984;-66
2023/05/30 07:19:27;;;;;;;5.97;2.93;;;18.90;98.00;;;;;;5090825;28;20448;-66
2023/05/30 07:21:55;;;;;;;5.30;2.97;;;19.00;98.00;;;;;;5090992;28;20978;-66
2023/05/30 07:24:22;;;;;;;4.73;3.17;;;19.10;98.00;;;;;;5090723;28;20979;-66
2023/05/30 07:26:51;;;;;;;7.73;3.10;;;19.20;98.00;;;;;;5076663;28;20485;-66
2023/05/30 07:29:19;;;;;;;5.47;2.90;;;19.10;97.90;;;;;;5094898;28;20475;-66
2023/05/30 07:31:46;;;;;;;11.80;3.30;;;19.20;98.00;;;;;;5093723;28;20462;-66
2023/05/30 07:34:13;;;;;;;3.80;2.67;;;19.40;98.00;;;;;;5094107;28;20881;-66
2023/05/30 07:36:40;;;;;;;4.57;2.80;;;19.50;98.00;;;;;;5094485;28;20451;-66
2023/05/30 07:39:08;;;;;;;5.27;3.00;;;19.70;97.90;;;;;;5094468;28;20462;-66
2023/05/30 07:41:35;;;;;;;7.70;3.10;;;19.80;97.50;;;;;;5076636;28;20451;-66
2023/05/30 07:44:03;;;;;;;5.33;3.17;;;19.80;97.50;;;;;;5075544;28;20459;-67
2023/05/30 07:46:32;;;;;;;5.90;3.13;;;19.80;97.80;;;;;;5094338;28;20517;-66
2023/05/30 07:48:59;;;;;;;5.27;2.90;;;19.80;98.00;;;;;;5094025;28;20491;-66
2023/05/30 07:51:26;;;;;;;5.07;2.73;;;19.80;97.10;;;;;;5094158;28;20479;-66
2023/05/30 07:53:53;;;;;;;5.80;3.20;;;19.70;97.10;;;;;;5094096;28;20448;-67
2023/05/30 07:56:20;;;;;;;4.93;3.00;;;19.60;97.20;;;;;;5094086;28;20455;-66
2023/05/30 07:58:48;;;;;;;4.53;2.80;;;19.60;97.40;;;;;;5094183;28;20475;-67
2023/05/30 08:01:16;;;;;;;4.13;2.97;;;19.80;98.00;;;;;;5094381;28;20954;-66
2023/05/30 08:03:43;;;;;;;11.27;3.30;;;20.00;96.80;;;;;;5094224;28;20447;-66
2023/05/30 08:06:10;;;;;;;7.07;2.80;;;20.10;95.60;;;;;;5093709;28;20459;-66
2023/05/30 08:08:38;;;;;;;6.50;3.10;;;20.20;94.40;;;;;;5093983;28;20483;-67
2023/05/30 08:11:05;;;;;;;5.83;3.00;;;20.20;95.20;;;;;;5093853;28;20509;-67
2023/05/30 08:13:32;;;;;;;5.63;3.13;;;20.30;95.80;;;;;;5093800;28;20467;-67
2023/05/30 08:15:59;;;;;;;5.83;3.07;;;20.40;96.40;;;;;;5075431;28;20501;-71
2023/05/30 08:18:30;;;;;;;4.90;2.70;;;20.50;94.90;;;;;;5093720;28;20467;-70
2023/05/30 08:20:57;;;;;;;4.97;3.23;;;20.50;94.10;;;;;;5093689;28;20517;-72
2023/05/30 08:23:24;;;;;;;5.40;3.00;;;20.60;95.50;;;;;;5093650;28;20517;-71
2023/05/30 08:25:52;;;;;;;5.23;3.00;;;20.60;95.10;;;;;;5093619;28;20452;-71
2023/05/30 08:28:20;;;;;;;4.53;2.83;;;20.70;96.20;;;;;;5093385;28;20480;-68
2023/05/30 08:30:58;;;;;;;5.07;3.07;;;20.90;97.10;;;;;;5093671;28;21143;-72
2023/05/30 08:33:27;;;;;;;5.67;3.40;;;21.10;96.50;;;;;;5093456;28;20462;-66
2023/05/30 08:35:54;;;;;;;4.40;2.60;;;21.30;94.10;;;;;;5092792;28;21137;-66
2023/05/30 08:38:22;;;;;;;6.50;3.47;;;21.30;93.10;;;;;;5075538;28;20463;-66
2023/05/30 08:40:52;;;;;;;6.00;3.40;;;21.50;94.40;;;;;;5093240;28;20456;-66
2023/05/30 08:43:20;;;;;;;5.80;3.23;;;21.60;93.40;;;;;;5093317;28;20452;-66
2023/05/30 08:45:48;;;;;;;5.60;3.37;;;21.60;92.50;;;;;;5093236;28;20468;-66
2023/05/30 08:48:19;;;;;;;6.07;3.27;;;21.60;92.70;;;;;;5093197;28;20878;-66
2023/05/30 08:50:48;;;;;;;5.27;3.20;;;21.70;93.80;;;;;;5093297;28;20899;-66
2023/05/30 08:53:25;;;;;;;5.97;3.60;;;21.60;92.90;;;;;;5093114;28;20448;-66
2023/05/30 08:55:59;;;;;;;4.97;3.20;;;21.80;93.00;;;;;;5093067;28;20537;-67
2023/05/30 08:58:31;;;;;;;6.30;3.13;;;21.80;93.20;;;;;;5093238;28;20487;-67
2023/05/30 09:00:59;;;;;;;9.20;3.47;;;21.90;92.90;;;;;;5092909;28;20451;-66
2023/05/30 09:03:28;;;;;;;5.23;2.87;;;21.90;92.50;;;;;;5092924;28;20455;-66
2023/05/30 09:05:57;;;;;;;6.23;2.97;;;21.90;90.40;;;;;;5092673;28;20884;-67
2023/05/30 09:08:25;;;;;;;7.50;3.10;;;22.00;92.20;;;;;;5092946;28;20804;-67
2023/05/30 09:10:52;;;;;;;6.70;3.33;;;22.10;92.70;;;;;;5092917;28;20954;-67
2023/05/30 09:13:19;;;;;;;6.87;3.57;;;22.10;90.80;;;;;;5092981;28;20460;-66
2023/05/30 09:15:47;;;;;;;5.80;3.70;;;22.20;92.90;;;;;;5092841;28;20462;-66
2023/05/30 09:18:16;;;;;;;7.27;3.10;;;22.10;90.80;;;;;;5092558;28;20977;-66
2023/05/30 09:20:44;;;;;;;6.33;3.30;;;22.20;92.00;;;;;;5092544;28;20543;-66
2023/05/30 09:23:13;;;;;;;5.50;3.37;;;22.20;92.80;;;;;;5092464;28;20860;-66
2023/05/30 09:25:44;;;;;;;4.87;2.97;;;22.20;92.40;;;;;;5093293;28;20460;-66
2023/05/30 09:28:11;;;;;;;5.27;3.27;;;22.30;91.80;;;;;;5093627;28;21033;-66
2023/05/30 09:30:55;;;;;;;5.87;3.60;;;22.50;91.70;;;;;;5092719;28;20475;-66
2023/05/30 09:33:23;;;;;;;5.20;3.20;;;22.80;90.80;;;;;;5075408;28;20559;-67
2023/05/30 09:35:53;;;;;;;6.90;3.23;;;22.90;90.30;;;;;;5093154;28;20487;-66
2023/05/30 09:38:24;;;;;;;7.10;3.83;;;23.10;89.90;;;;;;5093112;28;20455;-66
2023/05/30 09:40:55;;;;;;;5.00;2.80;;;23.30;88.50;;;;;;5092477;28;20462;-64
2023/05/30 09:43:34;;;;;;;6.77;3.37;;;23.40;90.80;;;;;;5092447;28;20455;-66
2023/05/30 09:46:05;;;;;;;6.97;3.20;;;23.40;87.60;;;;;;5074537;28;20443;-65
2023/05/30 09:48:32;;;;;;;10.17;3.50;;;23.60;90.00;;;;;;5081755;28;20843;-66
2023/05/30 09:51:01;;;;;;;4.80;2.93;;;23.80;89.90;;;;;;5072191;28;20502;-66
2023/05/30 09:53:32;;;;;;;9.33;4.23;;;23.90;87.80;;;;;;5072418;28;20457;-66
2023/05/30 09:56:00;;;;;;;7.20;3.40;;;23.80;86.10;;;;;;5072490;28;20449;-66
2023/05/30 09:58:27;;;;;;;5.57;3.57;;;23.90;87.40;;;;;;5071980;28;20457;-66
2023/05/30 10:00:56;;;;;;;7.00;3.40;;;24.00;88.00;;;;;;5071116;28;20472;-66
2023/05/30 10:03:42;;;;;;;6.50;3.73;;;24.10;88.00;;;;;;5071361;28;20468;-66
2023/05/30 10:06:13;;;;;;;5.50;3.37;;;24.30;86.90;;;;;;5072046;28;20881;-66
2023/05/30 10:08:44;;;;;;;9.43;3.80;;;24.30;85.50;;;;;;5086331;28;20570;-66
2023/05/30 10:11:12;;;;;;;5.10;3.20;;;24.40;86.80;;;;;;5091874;28;20483;-66
2023/05/30 10:13:39;;;;;;;5.63;3.43;;;24.50;87.00;;;;;;5092196;28;20525;-67
2023/05/30 10:16:10;;;;;;;6.77;3.80;;;24.70;84.40;;;;;;5071413;28;20453;-66
2023/05/30 10:18:44;;;;;;;4.80;3.07;;;24.80;84.20;;;;;;5053858;28;20457;-66
2023/05/30 10:21:13;;;;;;;5.00;2.73;;;24.90;84.90;;;;;;5071799;28;20506;-68
2023/05/30 10:23:42;;;;;;;6.37;3.40;;;25.10;83.40;;;;;;5071903;28;20814;-66
2023/05/30 10:26:12;;;;;;;5.10;3.23;;;25.20;85.10;;;;;;5071294;28;20464;-67
2023/05/30 10:28:40;;;;;;;6.00;3.60;;;25.30;83.60;;;;;;5071199;28;20491;-67
2023/05/30 10:31:08;;;;;;;5.17;3.13;;;25.30;80.90;;;;;;5070730;28;20479;-67
2023/05/30 10:33:47;;;;;;;4.60;2.97;;;25.30;81.50;;;;;;5070881;28;20464;-66
2023/05/30 10:36:15;;;;;;;5.80;3.60;;;25.40;83.80;;;;;;5052623;28;20488;-66
2023/05/30 10:38:52;;;;;;;8.27;3.97;;;25.50;81.40;;;;;;5070838;28;20536;-66
2023/05/30 10:41:27;;;;;;;6.40;3.60;;;25.40;80.10;;;;;;5070781;28;20826;-66
2023/05/30 10:44:04;;;;;;;5.63;3.30;;;25.60;80.30;;;;;;5071019;28;20464;-66
2023/05/30 10:46:44;;;;;;;5.70;3.20;;;25.70;81.60;;;;;;5053404;28;20456;-66
2023/05/30 10:49:16;;;;;;;5.00;3.33;;;25.90;82.60;;;;;;5071362;28;20491;-66
2023/05/30 10:52:03;;;;;;;6.73;3.50;;;25.80;79.90;;;;;;5071501;28;20464;-66
2023/05/30 10:54:32;;;;;;;6.50;3.50;;;25.60;79.90;;;;;;5071149;28;20993;-66
2023/05/30 10:57:00;;;;;;;7.17;4.00;;;25.50;80.50;;;;;;5070884;28;20456;-66
2023/05/30 10:59:27;;;;;;;4.23;3.13;;;25.60;81.60;;;;;;5072282;28;20475;-67
2023/05/30 11:02:02;;;;;;;7.30;3.50;;;25.70;79.80;;;;;;5074518;28;20461;-66
2023/05/30 11:04:35;;;;;;;7.70;3.30;;;25.90;80.10;;;;;;5074832;28;20467;-66
2023/05/30 11:07:05;;;;;;;5.70;3.70;;;26.20;78.80;;;;;;5074821;28;20499;-66
2023/05/30 11:09:34;;;;;;;4.90;3.10;;;26.50;77.40;;;;;;5057297;28;20860;-67
2023/05/30 11:12:01;;;;;;;7.30;3.50;;;26.90;78.30;;;;;;5074780;28;20962;-67
2023/05/30 11:14:30;;;;;;;5.17;3.37;;;27.20;76.60;;;;;;5074795;28;20487;-66
2023/05/30 11:17:01;;;;;;;5.90;3.53;;;27.30;75.20;;;;;;5057133;28;20461;-66
2023/05/30 11:19:35;;;;;;;7.57;4.00;;;27.40;76.70;;;;;;5074540;28;20962;-66
2023/05/30 11:22:03;;;;;;;6.13;3.23;;;27.20;76.40;;;;;;5074519;28;20453;-66
2023/05/30 11:24:31;;;;;;;5.63;3.53;;;26.90;76.00;;;;;;5074412;28;20977;-67
2023/05/30 11:27:08;;;;;;;6.90;3.60;;;27.20;77.50;;;;;;5074344;28;20459;-68
2023/05/30 11:29:36;;;;;;;5.53;3.20;;;27.40;75.30;;;;;;5074750;28;20886;-66
2023/05/30 11:32:07;;;;;;;6.43;3.40;;;27.80;73.70;;;;;;5056750;28;20535;-67
2023/05/30 11:34:34;;;;;;;5.70;3.43;;;28.10;75.60;;;;;;5074214;28;20498;-67
2023/05/30 11:37:05;;;;;;;5.37;3.33;;;28.30;74.40;;;;;;5074317;28;20448;-67
2023/05/30 11:39:33;;;;;;;6.30;3.20;;;28.70;73.60;;;;;;5074216;28;20464;-67
2023/05/30 11:42:02;;;;;;;9.90;3.33;;;28.80;72.80;;;;;;5074369;28;20887;-68
2023/05/30 11:44:30;;;;;;;5.00;3.30;;;29.10;74.60;;;;;;5075178;28;20514;-67
2023/05/30 11:47:01;;;;;;;4.40;3.10;;;29.20;72.00;;;;;;5075225;28;20495;-67
2023/05/30 11:49:28;;;;;;;6.33;3.90;;;29.30;73.20;;;;;;5074209;28;20484;-69
2023/05/30 11:51:56;;;;;;;4.90;3.40;;;29.40;71.50;;;;;;5074937;28;20977;-67
2023/05/30 11:54:23;;;;;;;4.70;3.37;;;29.40;72.60;;;;;;5074531;28;20777;-67
2023/05/30 11:56:51;;;;;;;4.57;3.33;;;29.70;71.00;;;;;;5074854;28;20475;-67
2023/05/30 11:59:24;;;;;;;6.90;3.87;;;29.20;70.50;;;;;;5074692;28;20540;-67
2023/05/30 12:01:52;;;;;;;7.30;3.50;;;28.90;72.10;;;;;;5074747;28;20509;-68
2023/05/30 12:04:22;;;;;;;6.70;3.20;;;29.00;72.30;;;;;;5074561;28;20543;-67
2023/05/30 12:06:49;;;;;;;5.37;3.30;;;29.30;73.50;;;;;;5074799;28;20480;-68
2023/05/30 12:09:17;;;;;;;5.30;3.20;;;29.80;70.60;;;;;;5074418;28;20480;-68
2023/05/30 12:11:58;;;;;;;8.20;3.20;;;30.20;70.10;;;;;;5073686;28;20449;-66
2023/05/30 12:15:03;;;;;;;4.80;3.57;;;30.20;69.10;;;;;;5074582;28;20567;-64
2023/05/30 12:17:30;;;;;;;7.10;3.30;;;29.40;70.70;;;;;;5074332;28;20457;-67
2023/05/30 12:20:00;;;;;;;5.17;3.50;;;28.60;71.60;;;;;;5074632;28;20938;-67
2023/05/30 12:22:30;;;;;;;5.13;3.23;;;28.00;74.10;;;;;;5074356;28;20455;-65
2023/05/30 12:24:58;;;;;;;7.20;3.50;;;27.60;74.20;;;;;;5074439;28;20448;-68
2023/05/30 12:27:26;;;;;;;6.00;3.50;;;27.30;74.10;;;;;;5073763;28;20457;-66
2023/05/30 12:29:54;;;;;;;8.60;3.30;;;27.10;73.30;;;;;;5074043;28;20485;-67
2023/05/30 12:32:28;;;;;;;4.13;3.03;;;27.50;75.70;;;;;;5074467;28;20498;-67
2023/05/30 12:34:59;;;;;;;6.50;3.70;;;28.10;74.10;;;;;;5080066;28;20487;-65
2023/05/30 12:37:26;;;;;;;5.10;3.20;;;28.60;75.30;;;;;;5094646;28;20534;-64
2023/05/30 12:39:55;;;;;;;5.10;3.33;;;29.20;73.20;;;;;;5094117;28;20462;-63
2023/05/30 12:42:24;;;;;;;7.80;4.33;;;28.90;71.40;;;;;;5094151;28;20946;-64
2023/05/30 12:44:53;;;;;;;5.50;3.50;;;28.40;72.10;;;;;;5094158;28;20484;-64
2023/05/30 12:47:21;;;;;;;5.17;3.80;;;28.30;73.90;;;;;;5093801;28;20452;-64
2023/05/30 12:49:50;;;;;;;4.93;3.10;;;28.70;74.50;;;;;;5093883;28;20486;-64
2023/05/30 12:52:19;;;;;;;5.77;3.60;;;29.10;70.40;;;;;;5093854;28;20459;-64
2023/05/30 12:54:47;;;;;;;7.67;3.53;;;29.60;70.90;;;;;;5093750;28;20448;-64